createdAt,value
2023-03-29T00:00:16.849Z,4.90
2023-03-29T00:02:48.800Z,4.80
2023-03-29T00:05:19.206Z,4.55
2023-03-29T00:07:47.010Z,4.70
2023-03-29T00:10:17.445Z,4.63
2023-03-29T00:12:45.215Z,5.50
2023-03-29T00:15:13.262Z,5.10
2023-03-29T00:17:41.014Z,5.47
2023-03-29T00:20:12.531Z,5.22
2023-03-29T00:22:44.530Z,5.03
2023-03-29T00:25:13.577Z,4.53
2023-03-29T00:27:41.701Z,5.25
2023-03-29T00:30:10.370Z,4.75
2023-03-29T00:32:38.596Z,5.07
2023-03-29T00:35:07.593Z,5.30
2023-03-29T00:37:35.690Z,5.25
2023-03-29T00:40:08.490Z,4.97
2023-03-29T00:42:36.468Z,4.50
2023-03-29T00:45:16.692Z,4.53
2023-03-29T00:47:57.507Z,4.60
2023-03-29T00:50:41.366Z,4.30
2023-03-29T00:53:15.242Z,5.00
2023-03-29T00:56:04.643Z,5.28
2023-03-29T00:58:39.521Z,5.22
2023-03-29T01:01:11.723Z,4.50
2023-03-29T01:04:08.624Z,4.85
2023-03-29T01:06:39.735Z,4.60
2023-03-29T01:09:12.753Z,4.80
2023-03-29T01:11:54.808Z,4.70
2023-03-29T01:14:35.312Z,4.07
2023-03-29T01:17:04.848Z,4.30
2023-03-29T01:19:39.483Z,4.70
2023-03-29T01:22:22.711Z,4.80
2023-03-29T01:25:05.479Z,4.43
2023-03-29T01:27:39.228Z,4.65
2023-03-29T01:30:14.516Z,4.28
2023-03-29T01:32:59.354Z,4.50
2023-03-29T01:35:48.580Z,4.10
2023-03-29T01:38:21.702Z,4.55
2023-03-29T01:40:49.528Z,4.50
2023-03-29T01:43:28.457Z,4.35
2023-03-29T01:46:21.736Z,4.80
2023-03-29T01:48:49.505Z,5.55
2023-03-29T01:51:39.693Z,5.20
2023-03-29T01:54:19.203Z,5.38
2023-03-29T01:56:50.272Z,5.18
2023-03-29T01:59:23.013Z,5.32
2023-03-29T02:01:55.574Z,4.85
2023-03-29T02:04:33.156Z,5.10
2023-03-29T02:07:03.330Z,4.82
2023-03-29T02:09:33.584Z,4.90
2023-03-29T02:12:07.373Z,5.30
2023-03-29T02:14:35.691Z,5.68
2023-03-29T02:17:19.827Z,5.25
2023-03-29T02:19:51.439Z,4.57
2023-03-29T02:22:26.060Z,5.13
2023-03-29T02:24:59.452Z,5.80
2023-03-29T02:27:29.759Z,4.70
2023-03-29T02:29:58.752Z,4.93
2023-03-29T02:33:17.322Z,4.97
2023-03-29T02:36:15.866Z,4.78
2023-03-29T02:38:44.191Z,4.80
2023-03-29T02:41:13.213Z,4.50
2023-03-29T02:43:42.356Z,5.15
2023-03-29T02:46:11.559Z,4.82
2023-03-29T02:48:40.963Z,5.30
2023-03-29T02:51:19.380Z,5.40
2023-03-29T02:54:19.655Z,4.60
2023-03-29T02:56:57.149Z,5.35
2023-03-29T02:59:25.095Z,5.28
2023-03-29T03:01:53.713Z,4.45
2023-03-29T03:04:22.406Z,5.07
2023-03-29T03:06:50.501Z,5.25
2023-03-29T03:09:18.709Z,5.22
2023-03-29T03:11:48.097Z,5.50
2023-03-29T03:14:16.832Z,4.43
2023-03-29T03:16:44.934Z,4.82
2023-03-29T03:19:12.745Z,5.18
2023-03-29T03:21:40.465Z,4.93
2023-03-29T03:24:08.386Z,4.95
2023-03-29T03:26:38.339Z,5.63
2023-03-29T03:29:06.951Z,4.85
2023-03-29T03:31:54.252Z,5.75
2023-03-29T03:34:42.600Z,5.68
2023-03-29T03:37:12.237Z,5.18
2023-03-29T03:39:40.448Z,5.13
2023-03-29T03:42:10.442Z,5.45
2023-03-29T03:44:43.292Z,5.30
2023-03-29T03:47:31.361Z,6.07
2023-03-29T03:50:11.948Z,5.72
2023-03-29T03:52:40.114Z,5.88
2023-03-29T03:55:09.453Z,5.88
2023-03-29T03:57:48.082Z,5.97
2023-03-29T04:00:21.975Z,6.00
2023-03-29T04:03:02.488Z,5.65
2023-03-29T04:05:30.769Z,5.80
2023-03-29T04:07:58.504Z,5.45
2023-03-29T04:10:56.988Z,5.72
2023-03-29T04:13:30.280Z,4.68
2023-03-29T04:16:16.693Z,4.72
2023-03-29T04:18:45.151Z,4.80
2023-03-29T04:21:13.495Z,5.07
2023-03-29T04:23:43.082Z,4.70
2023-03-29T04:26:12.411Z,5.13
2023-03-29T04:29:03.017Z,5.47
2023-03-29T04:31:46.155Z,5.00
2023-03-29T04:34:22.899Z,4.93
2023-03-29T04:36:54.374Z,5.38
2023-03-29T04:39:32.172Z,5.07
2023-03-29T04:42:00.853Z,4.82
2023-03-29T04:44:30.641Z,4.55
2023-03-29T04:47:00.858Z,5.00
2023-03-29T04:49:38.123Z,5.03
2023-03-29T04:52:11.949Z,4.50
2023-03-29T04:54:39.864Z,4.78
2023-03-29T04:57:25.352Z,4.88
2023-03-29T05:00:00.968Z,4.28
2023-03-29T05:02:48.813Z,4.85
2023-03-29T05:05:16.772Z,4.90
2023-03-29T05:07:46.668Z,4.53
2023-03-29T05:10:16.373Z,5.13
2023-03-29T05:12:44.971Z,5.07
2023-03-29T05:15:13.581Z,4.18
2023-03-29T05:17:42.459Z,4.45
2023-03-29T05:20:13.382Z,4.50
2023-03-29T05:22:44.098Z,5.10
2023-03-29T05:25:19.798Z,5.15
2023-03-29T05:27:47.867Z,5.32
2023-03-29T05:30:15.990Z,4.75
2023-03-29T05:32:53.176Z,4.78
2023-03-29T05:35:26.441Z,4.97
2023-03-29T05:37:56.519Z,5.85
2023-03-29T05:40:26.376Z,5.80
2023-03-29T05:43:27.564Z,6.30
2023-03-29T05:45:56.458Z,6.35
2023-03-29T05:48:26.020Z,5.47
2023-03-29T05:50:56.440Z,5.70
2023-03-29T05:53:26.558Z,5.28
2023-03-29T05:55:55.639Z,5.72
2023-03-29T05:58:26.738Z,5.57
2023-03-29T06:00:55.429Z,5.13
2023-03-29T06:03:43.892Z,5.88
2023-03-29T06:06:11.894Z,5.28
2023-03-29T06:08:39.756Z,5.70
2023-03-29T06:11:24.495Z,5.82
2023-03-29T06:14:19.694Z,6.03
2023-03-29T06:16:55.166Z,5.40
2023-03-29T06:19:23.348Z,5.32
2023-03-29T06:21:53.336Z,5.63
2023-03-29T06:29:28.504Z,5.65
2023-03-29T06:31:57.392Z,5.85
2023-03-29T06:34:45.617Z,5.70
2023-03-29T06:37:49.595Z,5.32
2023-03-29T06:40:25.609Z,5.47
2023-03-29T06:42:59.494Z,5.47
2023-03-29T06:45:40.124Z,5.40
2023-03-29T06:48:14.412Z,5.32
2023-03-29T06:50:42.594Z,5.25
2023-03-29T06:53:12.235Z,4.85
2023-03-29T06:55:41.794Z,5.35
2023-03-29T06:58:39.288Z,4.65
2023-03-29T07:01:20.804Z,5.28
2023-03-29T07:03:54.942Z,5.40
2023-03-29T07:06:29.783Z,5.40
2023-03-29T07:09:00.729Z,5.32
2023-03-29T07:11:43.545Z,5.28
2023-03-29T07:14:28.741Z,4.90
2023-03-29T07:16:58.653Z,4.95
2023-03-29T07:19:34.322Z,5.03
2023-03-29T07:22:08.356Z,5.82
2023-03-29T07:24:45.912Z,5.25
2023-03-29T07:27:14.855Z,5.30
2023-03-29T07:29:43.348Z,5.35
2023-03-29T07:32:11.520Z,5.10
2023-03-29T07:34:42.320Z,5.60
2023-03-29T07:37:15.586Z,5.65
2023-03-29T07:39:45.695Z,5.03
2023-03-29T07:42:29.210Z,4.82
2023-03-29T07:44:58.772Z,4.90
2023-03-29T07:47:33.171Z,5.40
2023-03-29T07:50:01.630Z,5.45
2023-03-29T07:52:30.406Z,5.57
2023-03-29T07:54:59.966Z,5.53
2023-03-29T07:57:38.437Z,5.25
2023-03-29T08:00:11.764Z,5.25
2023-03-29T08:02:44.876Z,5.35
2023-03-29T08:05:15.450Z,5.07
2023-03-29T08:07:52.838Z,5.15
2023-03-29T08:10:42.181Z,4.97
2023-03-29T08:13:28.625Z,5.85
2023-03-29T08:16:14.813Z,5.45
2023-03-29T08:18:50.529Z,5.78
2023-03-29T08:21:20.550Z,5.55
2023-03-29T08:23:50.634Z,5.50
2023-03-29T08:26:26.881Z,5.30
2023-03-29T08:28:56.918Z,6.03
2023-03-29T08:31:27.433Z,5.95
2023-03-29T08:33:55.538Z,5.57
2023-03-29T08:36:40.698Z,5.68
2023-03-29T08:39:16.898Z,5.80
2023-03-29T08:42:07.670Z,5.63
2023-03-29T08:45:05.335Z,6.22
2023-03-29T08:47:39.110Z,5.55
2023-03-29T08:50:11.159Z,5.57
2023-03-29T08:52:49.539Z,5.63
2023-03-29T08:55:42.829Z,5.38
2023-03-29T08:58:35.055Z,5.70
2023-03-29T09:01:08.855Z,4.95
2023-03-29T09:04:00.386Z,6.00
2023-03-29T09:06:41.973Z,5.45
2023-03-29T09:09:22.284Z,5.72
2023-03-29T09:12:35.755Z,5.68
2023-03-29T09:15:14.709Z,5.22
2023-03-29T09:18:11.493Z,5.53
2023-03-29T09:20:49.985Z,4.97
2023-03-29T09:23:52.794Z,5.97
2023-03-29T09:26:45.902Z,5.53
2023-03-29T09:29:56.722Z,5.80
2023-03-29T09:33:03.247Z,5.38
2023-03-29T09:35:54.807Z,5.50
2023-03-29T09:38:23.072Z,5.40
2023-03-29T09:40:57.465Z,4.93
2023-03-29T09:43:33.123Z,4.90
2023-03-29T09:46:11.258Z,5.20
2023-03-29T09:48:41.437Z,5.32
2023-03-29T09:51:13.099Z,4.90
2023-03-29T09:53:41.750Z,5.00
2023-03-29T09:56:19.208Z,5.30
2023-03-29T09:58:50.500Z,5.15
2023-03-29T10:01:20.490Z,4.75
2023-03-29T10:03:53.619Z,4.80
2023-03-29T10:06:25.724Z,5.30
2023-03-29T10:09:02.482Z,5.32
2023-03-29T10:11:39.149Z,5.15
2023-03-29T10:14:18.497Z,3.97
2023-03-29T10:16:46.858Z,4.82
2023-03-29T10:19:34.965Z,5.40
2023-03-29T10:22:07.774Z,4.93
2023-03-29T10:24:35.697Z,4.68
2023-03-29T10:27:11.836Z,4.63
2023-03-29T10:29:43.476Z,4.60
2023-03-29T10:32:27.893Z,5.32
2023-03-29T10:37:28.931Z,4.90
2023-03-29T10:39:56.875Z,4.38
2023-03-29T10:42:26.013Z,4.13
2023-03-29T10:44:59.449Z,4.40
2023-03-29T10:47:31.789Z,4.85
2023-03-29T10:49:59.588Z,4.65
2023-03-29T10:52:30.190Z,3.97
2023-03-29T10:54:59.459Z,4.75
2023-03-29T10:57:45.837Z,3.90
2023-03-29T11:00:37.311Z,3.78
2023-03-29T11:03:14.268Z,3.72
2023-03-29T11:05:49.540Z,3.33
2023-03-29T11:08:32.220Z,3.40
2023-03-29T11:11:18.922Z,3.42
2023-03-29T11:14:09.152Z,3.58
2023-03-29T11:16:56.917Z,3.85
2023-03-29T11:19:50.788Z,3.83
2023-03-29T11:22:21.507Z,3.37
2023-03-29T11:25:01.225Z,4.03
2023-03-29T11:27:34.023Z,3.25
2023-03-29T11:30:15.929Z,3.95
2023-03-29T11:33:13.177Z,3.50
2023-03-29T11:36:02.774Z,3.60
2023-03-29T11:38:45.227Z,3.35
2023-03-29T11:41:19.867Z,3.53
2023-03-29T11:43:56.900Z,3.83
2023-03-29T11:46:40.445Z,3.70
2023-03-29T11:49:15.062Z,3.57
2023-03-29T11:51:53.740Z,3.58
2023-03-29T11:54:47.561Z,3.10
2023-03-29T11:57:44.309Z,3.70
2023-03-29T12:00:16.277Z,3.15
2023-03-29T12:02:58.816Z,2.75
2023-03-29T12:05:36.170Z,2.55
2023-03-29T12:08:06.382Z,2.40
2023-03-29T12:10:46.558Z,2.63
2023-03-29T12:13:24.748Z,2.33
2023-03-29T12:16:06.039Z,2.20
2023-03-29T12:18:41.141Z,2.20
2023-03-29T12:21:20.126Z,2.60
2023-03-29T12:23:49.625Z,2.30
2023-03-29T12:26:49.805Z,2.35
2023-03-29T12:29:39.536Z,2.50
2023-03-29T12:32:16.505Z,3.08
2023-03-29T12:35:05.421Z,2.30
2023-03-29T12:38:00.721Z,2.50
2023-03-29T12:41:02.341Z,2.40
2023-03-29T12:43:49.579Z,1.90
2023-03-29T12:46:36.734Z,2.20
2023-03-29T12:49:21.084Z,2.13
2023-03-29T12:54:21.952Z,1.90
2023-03-29T12:56:52.874Z,1.92
2023-03-29T12:59:44.240Z,2.35
2023-03-29T13:02:15.220Z,2.70
2023-03-29T13:04:43.253Z,2.72
2023-03-29T13:07:15.287Z,2.47
2023-03-29T13:09:52.193Z,2.55
2023-03-29T13:12:23.037Z,2.25
2023-03-29T13:14:58.065Z,2.75
2023-03-29T13:17:53.559Z,2.15
2023-03-29T13:20:40.290Z,2.42
2023-03-29T13:23:42.419Z,3.80
2023-03-29T13:26:35.669Z,2.80
2023-03-29T13:29:37.315Z,2.83
2023-03-29T13:32:27.651Z,2.30
2023-03-29T13:35:31.036Z,2.70
2023-03-29T13:38:05.361Z,2.47
2023-03-29T13:40:44.153Z,2.30
2023-03-29T13:43:20.848Z,2.30
2023-03-29T13:45:58.128Z,2.60
2023-03-29T13:48:49.122Z,2.15
2023-03-29T13:51:28.238Z,2.38
2023-03-29T13:53:58.550Z,2.40
2023-03-29T13:56:33.105Z,2.67
2023-03-29T13:59:15.819Z,2.25
2023-03-29T14:01:53.598Z,2.72
2023-03-29T14:04:25.948Z,2.22
2023-03-29T14:07:03.882Z,2.35
2023-03-29T14:09:36.186Z,2.88
2023-03-29T14:12:05.024Z,2.45
2023-03-29T14:14:33.255Z,1.90
2023-03-29T14:17:02.880Z,2.38
2023-03-29T14:19:33.221Z,2.33
2023-03-29T14:22:02.667Z,2.20
2023-03-29T14:24:40.417Z,2.33
2023-03-29T14:27:11.582Z,2.08
2023-03-29T14:29:39.721Z,2.30
2023-03-29T14:32:17.010Z,2.75
2023-03-29T14:34:48.950Z,2.83
2023-03-29T14:37:28.706Z,2.30
2023-03-29T14:39:58.739Z,2.05
2023-03-29T14:42:28.798Z,2.30
2023-03-29T14:45:08.065Z,1.80
2023-03-29T14:47:37.104Z,1.70
2023-03-29T14:50:06.367Z,2.10
2023-03-29T14:52:35.108Z,2.75
2023-03-29T14:55:04.307Z,2.50
2023-03-29T14:57:36.760Z,2.40
2023-03-29T15:00:19.015Z,2.13
2023-03-29T15:02:54.977Z,2.10
2023-03-29T15:05:26.517Z,2.05
2023-03-29T15:07:56.409Z,2.40
2023-03-29T15:10:28.434Z,2.42
2023-03-29T15:12:57.330Z,2.45
2023-03-29T15:15:27.302Z,2.20
2023-03-29T15:17:58.545Z,2.75
2023-03-29T15:20:30.141Z,2.97
2023-03-29T15:23:16.153Z,2.35
2023-03-29T15:26:15.342Z,2.35
2023-03-29T15:29:00.681Z,3.05
2023-03-29T15:31:40.584Z,2.35
2023-03-29T15:34:12.305Z,2.33
2023-03-29T15:36:48.312Z,2.72
2023-03-29T15:39:18.126Z,2.85
2023-03-29T15:41:52.673Z,2.85
2023-03-29T15:44:29.229Z,2.75
2023-03-29T15:46:58.552Z,2.55
2023-03-29T15:49:27.354Z,2.58
2023-03-29T15:51:55.311Z,2.47
2023-03-29T15:54:25.000Z,3.05
2023-03-29T15:57:03.689Z,2.97
2023-03-29T15:59:32.177Z,2.58
2023-03-29T16:02:00.610Z,2.90
2023-03-29T16:04:29.188Z,2.88
2023-03-29T16:06:57.889Z,2.63
2023-03-29T16:09:30.476Z,2.30
2023-03-29T16:12:01.467Z,2.70
2023-03-29T16:14:31.765Z,3.72
2023-03-29T16:17:02.677Z,2.72
2023-03-29T16:19:33.105Z,3.58
2023-03-29T16:22:08.944Z,2.92
2023-03-29T16:24:37.431Z,3.15
2023-03-29T16:27:05.644Z,3.00
2023-03-29T16:29:36.060Z,2.92
2023-03-29T16:32:05.477Z,3.40
2023-03-29T16:34:36.137Z,2.95
2023-03-29T16:37:04.083Z,3.10
2023-03-29T16:39:31.971Z,2.80
2023-03-29T16:42:00.546Z,2.83
2023-03-29T16:44:29.211Z,3.10
2023-03-29T16:47:00.154Z,2.17
2023-03-29T16:49:28.981Z,3.33
2023-03-29T16:51:57.339Z,3.05
2023-03-29T16:54:26.000Z,2.95
2023-03-29T16:56:53.981Z,3.30
2023-03-29T16:59:22.052Z,3.10
2023-03-29T17:01:50.831Z,3.60
2023-03-29T17:04:19.593Z,3.15
2023-03-29T17:06:47.885Z,3.22
2023-03-29T17:09:17.769Z,3.55
2023-03-29T17:11:47.876Z,3.17
2023-03-29T17:14:15.955Z,2.85
2023-03-29T17:16:43.963Z,4.03
2023-03-29T17:19:12.680Z,3.17
2023-03-29T17:21:41.301Z,3.13
2023-03-29T17:24:10.127Z,3.50
2023-03-29T17:26:38.493Z,3.22
2023-03-29T17:29:07.729Z,3.40
2023-03-29T17:31:36.798Z,3.42
2023-03-29T17:34:04.663Z,3.50
2023-03-29T17:36:33.852Z,2.97
2023-03-29T17:39:02.976Z,3.50
2023-03-29T17:41:31.428Z,3.45
2023-03-29T17:43:59.401Z,3.13
2023-03-29T17:46:27.408Z,3.67
2023-03-29T17:48:56.225Z,3.22
2023-03-29T17:51:24.178Z,3.60
2023-03-29T17:53:52.427Z,4.43
2023-03-29T17:56:20.728Z,4.55
2023-03-29T17:58:49.489Z,3.53
2023-03-29T18:01:21.374Z,4.57
2023-03-29T18:03:49.370Z,4.57
2023-03-29T18:06:20.480Z,4.75
2023-03-29T18:08:48.632Z,4.32
2023-03-29T18:11:25.045Z,4.57
2023-03-29T18:13:58.437Z,4.05
2023-03-29T18:16:27.988Z,4.38
2023-03-29T18:18:55.952Z,5.20
2023-03-29T18:21:26.159Z,4.55
2023-03-29T18:23:56.648Z,4.85
2023-03-29T18:26:25.328Z,4.38
2023-03-29T18:28:53.525Z,4.47
2023-03-29T18:31:22.399Z,4.55
2023-03-29T18:33:50.687Z,5.28
2023-03-29T18:36:18.732Z,4.80
2023-03-29T18:38:46.595Z,5.30
2023-03-29T18:41:14.500Z,5.25
2023-03-29T18:43:43.372Z,5.65
2023-03-29T18:46:11.396Z,5.05
2023-03-29T18:48:39.366Z,5.25
2023-03-29T18:51:08.657Z,5.43
2023-03-29T18:53:37.912Z,5.38
2023-03-29T18:56:06.770Z,5.32
2023-03-29T18:58:35.034Z,5.57
2023-03-29T19:01:05.368Z,5.80
2023-03-29T19:03:34.987Z,5.25
2023-03-29T19:06:03.706Z,6.10
2023-03-29T19:08:33.099Z,5.57
2023-03-29T19:11:03.971Z,6.43
2023-03-29T19:13:31.901Z,6.72
2023-03-29T19:15:59.766Z,6.55
2023-03-29T19:18:27.821Z,6.75
2023-03-29T19:20:56.482Z,6.70
2023-03-29T19:23:27.332Z,6.78
2023-03-29T19:25:57.840Z,7.63
2023-03-29T19:28:27.492Z,7.63
2023-03-29T19:30:56.842Z,7.00
2023-03-29T19:33:24.686Z,6.90
2023-03-29T19:35:52.685Z,6.43
2023-03-29T19:38:21.585Z,7.32
2023-03-29T19:40:50.630Z,7.70
2023-03-29T19:43:18.741Z,7.68
2023-03-29T19:45:49.877Z,6.78
2023-03-29T19:48:23.485Z,6.88
2023-03-29T19:50:52.172Z,6.57
2023-03-29T19:53:20.063Z,6.75
2023-03-29T19:55:49.899Z,6.50
2023-03-29T19:58:17.922Z,6.55
2023-03-29T20:00:46.733Z,7.47
2023-03-29T20:03:15.818Z,6.05
2023-03-29T20:05:43.844Z,6.65
2023-03-29T20:08:11.679Z,6.82
2023-03-29T20:10:42.008Z,6.55
2023-03-29T20:13:09.936Z,7.22
2023-03-29T20:15:37.800Z,6.80
2023-03-29T20:18:06.103Z,6.75
2023-03-29T20:20:35.809Z,6.63
2023-03-29T20:23:05.285Z,6.20
2023-03-29T20:25:36.322Z,6.78
2023-03-29T20:28:04.981Z,6.30
2023-03-29T20:30:32.864Z,6.95
2023-03-29T20:33:01.057Z,6.13
2023-03-29T20:35:29.080Z,6.78
2023-03-29T20:37:56.902Z,6.32
2023-03-29T20:40:24.898Z,6.63
2023-03-29T20:42:54.378Z,6.30
2023-03-29T20:45:22.141Z,6.43
2023-03-29T20:48:02.440Z,6.65
2023-03-29T20:50:30.424Z,7.00
2023-03-29T20:53:03.751Z,6.47
2023-03-29T20:55:33.521Z,7.30
2023-03-29T20:58:02.528Z,7.05
2023-03-29T21:00:33.700Z,6.13
2023-03-29T21:03:05.306Z,6.75
2023-03-29T21:05:34.024Z,6.15
2023-03-29T21:08:03.083Z,5.97
2023-03-29T21:10:31.645Z,6.18
2023-03-29T21:13:00.414Z,6.30
2023-03-29T21:15:30.841Z,6.68
2023-03-29T21:17:59.044Z,6.57
2023-03-29T21:20:27.911Z,5.72
2023-03-29T21:22:56.141Z,6.38
2023-03-29T21:25:23.891Z,6.30
2023-03-29T21:27:51.611Z,6.25
2023-03-29T21:30:19.538Z,5.40
2023-03-29T21:32:47.449Z,5.60
2023-03-29T21:35:15.734Z,6.18
2023-03-29T21:37:43.565Z,6.43
2023-03-29T21:40:12.736Z,6.68
2023-03-29T21:42:40.606Z,6.43
2023-03-29T21:45:09.293Z,5.93
2023-03-29T21:47:37.184Z,5.85
2023-03-29T21:50:05.554Z,5.70
2023-03-29T21:52:33.415Z,6.10
2023-03-29T21:55:01.242Z,6.28
2023-03-29T21:57:29.293Z,5.78
2023-03-29T21:59:57.227Z,5.28
2023-03-29T22:02:25.066Z,6.28
2023-03-29T22:04:52.978Z,5.78
2023-03-29T22:07:22.937Z,5.55
2023-03-29T22:09:50.732Z,6.22
2023-03-29T22:12:18.868Z,5.50
2023-03-29T22:14:49.786Z,5.85
2023-03-29T22:17:17.585Z,5.72
2023-03-29T22:19:45.531Z,5.78
2023-03-29T22:22:14.488Z,5.90
2023-03-29T22:24:42.592Z,5.57
2023-03-29T22:27:11.884Z,6.07
2023-03-29T22:29:39.975Z,6.43
2023-03-29T22:32:07.825Z,5.90
2023-03-29T22:34:35.853Z,6.05
2023-03-29T22:37:03.893Z,6.22
2023-03-29T22:39:35.489Z,6.13
2023-03-29T22:42:03.437Z,5.72
2023-03-29T22:44:31.405Z,6.28
2023-03-29T22:46:59.632Z,5.10
2023-03-29T22:49:27.463Z,5.00
2023-03-29T22:51:55.386Z,5.85
2023-03-29T22:54:23.171Z,6.05
2023-03-29T22:56:51.111Z,5.93
2023-03-29T22:59:19.052Z,5.93
2023-03-29T23:01:46.943Z,5.50
2023-03-29T23:04:14.944Z,5.97
2023-03-29T23:06:42.832Z,5.85
2023-03-29T23:09:11.239Z,6.75
2023-03-29T23:11:39.022Z,6.35
2023-03-29T23:14:07.770Z,6.32
2023-03-29T23:16:35.585Z,6.47
2023-03-29T23:19:03.532Z,5.88
2023-03-29T23:21:31.329Z,6.53
2023-03-29T23:23:59.339Z,6.38
2023-03-29T23:26:28.045Z,6.53
2023-03-29T23:28:57.715Z,6.07
2023-03-29T23:31:25.560Z,5.80
2023-03-29T23:33:53.453Z,6.50
2023-03-29T23:36:27.250Z,5.60
2023-03-29T23:38:55.043Z,6.43
2023-03-29T23:41:23.097Z,6.70
2023-03-29T23:43:52.370Z,6.63
2023-03-29T23:46:21.535Z,6.50
2023-03-29T23:48:50.926Z,7.22
2023-03-29T23:51:23.389Z,6.57
2023-03-29T23:53:51.899Z,6.65
2023-03-29T23:56:21.518Z,7.75
2023-03-29T23:58:49.591Z,7.50
